Hovedside
METAR-TAF:

METAR-TAF

Lufthavner :

Auckland internasjonale lufthavn

Auckland, New Zealand

breddegrad: 37-01S, lengdegrad: 174-48E, høyde over havet: 7 m

Gjeldene værobservasjon

Denne rapporten ble laget for 36 minutter siden, klokken 03:00 UTC
Vind 12 kt fra Vest
Temperatur 16°C
Luftfuktighet 77%
Trykk 1013 hPa
Sikt 10 km eller mer

METAR: NZAA 170300Z AUTO 26012KT 9999 SCT050/// 16/12 Q1013 NOSIG

Tid: 15:36 (03:36 UTC)

Varsel

Denne rapporten ble laget for 4 timer og 19 minutter siden, klokken 23:17 UTC
Varsel gyldig fra 17. klokken 00 UTC til 18. klokken 00 UTC
Vind 8 kt fra Vest-sørvest
Sikt 10 km eller mer
Få skyer i en høyde av 3000 ft
lette regnbyger
Midlertidig
fra 17. klokken 07 UTC til 17. klokken 12 UTC
Sikt: 5000 m
Få skyer i en høyde av 2000 ft, Tårnskyer (cumulus).
regnbyger
Sannsynlighet 30%
fra 17. klokken 16 UTC til 17. klokken 22 UTC
Sikt: 3000 m
dis

TAF: NZAA 162317Z 1700/1800 24008KT 9999 -SHRA FEW030 TEMPO 1707/1712 5000 SHRA FEW020TCU PROB30 1716/1722 3000 BR

Værobservasjoner og værvarsel for over 4000 flyplasser (METAR- og TAF-rapporter).

Tilgjengelige stasjoner er representert av de røde og gule prikkene på kartet.

Hold musepekeren over prikken for å se navnet på stasjonen.

Klikk så for å se værobservasjoner og -varsler.

For å forandre kartet kan du klikke på den grønne knappen med svart kryss for å zoome inn, på den grønne knappen med strek for å zoome ut, eller på de grønne pilene for å se tilstøtende kart.


METAR-TAF: